Time;durP1;ratioP1;P1;durP2;ratioP2;P2;SDS_P1;SDS_P2;PMS_P1;PMS_P2;Temp;Humidity;BMP_temperature;BMP_pressure;BME280_temperature;BME280_humidity;BME280_pressure;Samples;Min_cycle;Max_cycle;Signal;HPM_P1;HPM_P2
2021/12/07 00:01:07;;;;;;;;;;;;;;;3.74;100.00;93493.63;10395064;28;20510;-74
2021/12/07 00:06:08;;;;;;;;;;;;;;;3.75;100.00;93481.94;10403475;28;20334;-76
2021/12/07 00:11:09;;;;;;;;;;;;;;;3.67;100.00;93492.25;10404899;28;19917;-75
2021/12/07 00:16:10;;;;;;;;;;;;;;;3.49;100.00;93491.69;10396565;28;20418;-73
2021/12/07 00:21:11;;;;;;;;;;;;;;;3.44;100.00;93488.97;10378963;28;19991;-75
2021/12/07 00:26:12;;;;;;;;;;;;;;;3.41;100.00;93492.16;10378777;28;19917;-75
2021/12/07 00:31:21;;;;;;;;;;;;;;;3.68;100.00;93494.66;10379389;28;19914;-77
2021/12/07 00:36:22;;;;;;;;;;;;;;;3.92;100.00;93499.50;10378023;28;19969;-74
2021/12/07 00:41:22;;;;;;;;;;;;;;;3.59;100.00;93502.31;10378426;28;20032;-74
2021/12/07 00:46:24;;;;;;;;;;;;;;;3.36;100.00;93500.09;10377603;28;19918;-78
2021/12/07 00:51:24;;;;;;;;;;;;;;;3.39;100.00;93495.09;10378493;28;20071;-74
2021/12/07 00:56:25;;;;;;;;;;;;;;;3.36;100.00;93492.94;10377637;28;19913;-75
2021/12/07 01:01:26;;;;;;;;;;;;;;;3.44;100.00;93488.97;10377506;28;19924;-73
2021/12/07 01:06:48;;;;;;;;;;;;;;;3.40;100.00;93491.38;10360566;28;19913;-73
2021/12/07 01:27:48;;;;;;;;;;;;;;;3.69;100.00;93488.28;10361804;28;19917;-74
2021/12/07 02:04:12;;;;;;;;;;;;;;;4.23;100.00;93439.22;10414704;28;19917;-73
2021/12/07 02:09:13;;;;;;;;;;;;;;;4.35;100.00;93433.63;10413296;28;19913;-76
2021/12/07 02:14:17;;;;;;;;;;;;;;;4.15;100.00;93426.44;10413250;28;20007;-76
2021/12/07 02:19:17;;;;;;;;;;;;;;;4.12;100.00;93421.66;10397959;28;19913;-74
2021/12/07 02:24:18;;;;;;;;;;;;;;;4.20;100.00;93417.66;10413986;28;20859;-74
2021/12/07 02:29:19;;;;;;;;;;;;;;;4.21;100.00;93417.41;10412103;28;20342;-77
2021/12/07 02:34:21;;;;;;;;;;;;;;;4.04;100.00;93415.00;10413157;28;20519;-75
2021/12/07 02:39:31;;;;;;;;;;;;;;;3.73;100.00;93414.16;10414842;28;19929;-73
2021/12/07 02:44:33;;;;;;;;;;;;;;;3.64;100.00;93410.41;10413136;28;19921;-73
2021/12/07 02:49:33;;;;;;;;;;;;;;;3.55;100.00;93404.84;10413915;28;19920;-77
2021/12/07 02:54:34;;;;;;;;;;;;;;;3.35;100.00;93408.22;10412524;28;19913;-74
2021/12/07 02:59:39;;;;;;;;;;;;;;;2.99;100.00;93418.72;10416508;28;19949;-75
2021/12/07 03:04:50;;;;;;;;;;;;;;;3.19;100.00;93412.69;10410988;28;19928;-76
2021/12/07 03:30:51;;;;;;;;;;;;;;;2.97;100.00;93404.88;10365418;28;19917;-73
2021/12/07 03:35:53;;;;;;;;;;;;;;;2.63;100.00;93400.72;10380652;28;20367;-74
2021/12/07 03:40:54;;;;;;;;;;;;;;;2.09;100.00;93403.53;10380379;28;20027;-78
2021/12/07 03:45:54;;;;;;;;;;;;;;;2.18;100.00;93408.13;10380333;28;19992;-74
2021/12/07 03:50:55;;;;;;;;;;;;;;;2.00;100.00;93411.16;10364110;28;19918;-76
2021/12/07 03:55:56;;;;;;;;;;;;;;;1.99;100.00;93398.97;10363871;28;19921;-74
2021/12/07 04:00:56;;;;;;;;;;;;;;;1.79;100.00;93413.63;10365814;28;20428;-73
2021/12/07 04:05:59;;;;;;;;;;;;;;;1.75;100.00;93414.38;10362850;28;19964;-73
2021/12/07 04:11:00;;;;;;;;;;;;;;;1.76;100.00;93419.44;10364242;28;19913;-78
2021/12/07 04:16:00;;;;;;;;;;;;;;;1.68;100.00;93414.59;10376280;28;19917;-77
2021/12/07 04:21:02;;;;;;;;;;;;;;;1.36;100.00;93416.09;10380179;28;20022;-73
2021/12/07 04:26:04;;;;;;;;;;;;;;;1.33;100.00;93413.16;10379581;28;19914;-76
2021/12/07 04:31:06;;;;;;;;;;;;;;;1.17;100.00;93404.25;10361438;28;19921;-73
2021/12/07 04:36:08;;;;;;;;;;;;;;;1.22;100.00;93403.53;10378294;28;19917;-76
2021/12/07 04:41:09;;;;;;;;;;;;;;;1.22;100.00;93409.59;10362826;28;19930;-76
2021/12/07 05:01:48;;;;;;;;;;;;;;;1.05;100.00;93406.22;10361152;28;19921;-82
2021/12/07 05:06:52;;;;;;;;;;;;;;;0.92;100.00;93417.97;10401576;28;19916;-84
2021/12/07 05:12:18;;;;;;;;;;;;;;;0.89;100.00;93413.97;10376721;28;19913;-74
2021/12/07 05:17:42;;;;;;;;;;;;;;;1.05;100.00;93411.50;10362082;28;19941;-74
2021/12/07 05:38:39;;;;;;;;;;;;;;;0.27;100.00;93402.56;10360322;28;20403;-75
2021/12/07 05:43:39;;;;;;;;;;;;;;;0.22;100.00;93401.69;10375493;28;19921;-78
2021/12/07 05:48:39;;;;;;;;;;;;;;;0.32;100.00;93391.25;10399645;28;19960;-75
2021/12/07 05:53:39;;;;;;;;;;;;;;;0.08;100.00;93394.09;10380404;28;19914;-75
2021/12/07 05:58:40;;;;;;;;;;;;;;;-0.04;100.00;93401.31;10360501;28;19925;-78
2021/12/07 06:03:40;;;;;;;;;;;;;;;0.06;100.00;93403.31;10375493;28;19917;-76
2021/12/07 06:08:40;;;;;;;;;;;;;;;0.10;100.00;93405.22;10376477;28;19988;-75
2021/12/07 06:13:41;;;;;;;;;;;;;;;0.26;100.00;93410.75;10395408;28;19982;-73
2021/12/07 06:18:42;;;;;;;;;;;;;;;0.46;100.00;93407.56;10401622;28;19988;-81
2021/12/07 06:23:42;;;;;;;;;;;;;;;0.22;100.00;93404.34;10401289;28;19917;-76
2021/12/07 06:28:42;;;;;;;;;;;;;;;0.66;100.00;93405.22;10402388;28;19917;-81
2021/12/07 06:33:43;;;;;;;;;;;;;;;0.81;100.00;93415.19;10399288;28;19913;-80
2021/12/07 06:38:44;;;;;;;;;;;;;;;0.85;100.00;93405.75;10399247;28;20342;-81
2021/12/07 06:43:45;;;;;;;;;;;;;;;0.94;100.00;93400.03;10407085;28;20063;-78
2021/12/07 06:48:45;;;;;;;;;;;;;;;1.00;100.00;93399.03;10407011;28;19946;-81
2021/12/07 06:53:45;;;;;;;;;;;;;;;0.89;100.00;93394.66;10407870;28;19920;-81
2021/12/07 06:58:46;;;;;;;;;;;;;;;0.89;100.00;93392.00;10406787;28;19913;-82
2021/12/07 07:03:46;;;;;;;;;;;;;;;1.03;100.00;93393.22;10406919;28;19917;-76
2021/12/07 07:08:46;;;;;;;;;;;;;;;0.73;100.00;93388.41;10389274;28;19920;-76
2021/12/07 07:13:48;;;;;;;;;;;;;;;0.71;100.00;93390.47;10406706;28;19913;-77
2021/12/07 07:18:48;;;;;;;;;;;;;;;0.62;100.00;93393.53;10405895;28;19920;-74
2021/12/07 07:23:49;;;;;;;;;;;;;;;0.36;100.00;93394.22;10404589;28;19939;-81
2021/12/07 07:28:50;;;;;;;;;;;;;;;-0.02;100.00;93389.44;10381087;28;19964;-75
2021/12/07 07:33:51;;;;;;;;;;;;;;;-0.03;100.00;93398.44;10380470;28;19913;-75
2021/12/07 07:38:51;;;;;;;;;;;;;;;0.04;100.00;93394.81;10365326;28;19922;-75
2021/12/07 07:43:52;;;;;;;;;;;;;;;-0.04;100.00;93396.03;10379840;28;19948;-75
2021/12/07 07:48:52;;;;;;;;;;;;;;;-0.10;100.00;93399.63;10377544;28;20003;-74
2021/12/07 07:53:54;;;;;;;;;;;;;;;-0.02;100.00;93400.00;10404451;28;19920;-74
2021/12/07 07:58:55;;;;;;;;;;;;;;;-0.05;100.00;93397.84;10405266;28;20275;-77
2021/12/07 08:03:55;;;;;;;;;;;;;;;0.16;100.00;93391.03;10410672;28;20339;-75
2021/12/07 08:08:59;;;;;;;;;;;;;;;0.20;100.00;93391.38;10413709;28;20012;-75
2021/12/07 08:13:59;;;;;;;;;;;;;;;0.20;100.00;93398.50;10409891;28;20299;-75
2021/12/07 08:18:59;;;;;;;;;;;;;;;-0.07;100.00;93399.13;10407671;28;19913;-75
2021/12/07 08:24:00;;;;;;;;;;;;;;;0.16;100.00;93404.25;10405778;28;19917;-74
2021/12/07 08:29:00;;;;;;;;;;;;;;;-0.22;100.00;93400.50;10403693;28;19924;-77
2021/12/07 08:34:01;;;;;;;;;;;;;;;0.06;100.00;93412.03;10402668;28;19927;-75
2021/12/07 08:39:02;;;;;;;;;;;;;;;0.29;100.00;93407.59;10403436;28;19940;-77
2021/12/07 08:44:03;;;;;;;;;;;;;;;0.50;100.00;93421.91;10386266;28;19925;-77
2021/12/07 08:49:03;;;;;;;;;;;;;;;0.45;100.00;93425.28;10401814;28;19940;-76
2021/12/07 08:54:22;;;;;;;;;;;;;;;0.32;100.00;93428.25;10402126;28;19913;-76
2021/12/07 09:04:41;;;;;;;;;;;;;;;0.11;100.00;93435.88;10402011;28;19984;-74
2021/12/07 09:09:44;;;;;;;;;;;;;;;0.30;100.00;93433.78;10401835;28;20003;-78
2021/12/07 09:14:45;;;;;;;;;;;;;;;0.21;100.00;93429.16;10401644;28;19972;-76
2021/12/07 09:19:45;;;;;;;;;;;;;;;0.21;100.00;93421.22;10400725;28;20276;-78
2021/12/07 09:24:45;;;;;;;;;;;;;;;0.58;100.00;93424.13;10401123;28;19975;-75
2021/12/07 09:29:46;;;;;;;;;;;;;;;0.08;100.00;93422.34;10400821;28;19913;-81
2021/12/07 09:34:46;;;;;;;;;;;;;;;0.35;100.00;93425.16;10400546;28;20044;-77
2021/12/07 09:39:47;;;;;;;;;;;;;;;0.64;100.00;93406.50;10400156;28;19921;-76
2021/12/07 09:44:47;;;;;;;;;;;;;;;0.88;100.00;93407.09;10380896;28;20022;-82
2021/12/07 09:49:47;;;;;;;;;;;;;;;0.91;100.00;93406.59;10361433;28;19913;-75
2021/12/07 09:54:47;;;;;;;;;;;;;;;0.97;100.00;93399.53;10359429;28;19913;-76
2021/12/07 09:59:48;;;;;;;;;;;;;;;0.84;100.00;93401.47;10375960;28;19921;-76
2021/12/07 10:04:49;;;;;;;;;;;;;;;1.05;100.00;93408.84;10376141;28;19917;-80
2021/12/07 10:09:49;;;;;;;;;;;;;;;0.98;100.00;93401.91;10376037;28;19948;-79
2021/12/07 10:14:49;;;;;;;;;;;;;;;1.16;100.00;93406.09;10378431;28;19921;-75
2021/12/07 10:19:50;;;;;;;;;;;;;;;1.18;100.00;93392.63;10384447;28;20004;-74
2021/12/07 10:24:54;;;;;;;;;;;;;;;1.39;100.00;93393.63;10384119;28;19984;-81
2021/12/07 10:29:54;;;;;;;;;;;;;;;1.59;100.00;93371.88;10368288;28;20379;-77
2021/12/07 10:34:54;;;;;;;;;;;;;;;1.68;100.00;93382.81;10383403;28;19920;-79
2021/12/07 10:39:57;;;;;;;;;;;;;;;1.71;100.00;93367.19;10382650;28;19929;-77
2021/12/07 10:45:04;;;;;;;;;;;;;;;0.76;100.00;93370.19;10386618;28;19926;-75
2021/12/07 10:50:08;;;;;;;;;;;;;;;0.37;100.00;93388.69;10382329;28;19913;-79
2021/12/07 10:55:11;;;;;;;;;;;;;;;0.51;100.00;93376.72;10365892;28;19960;-78
2021/12/07 11:00:29;;;;;;;;;;;;;;;0.58;100.00;93365.19;10382495;28;19980;-80
2021/12/07 11:05:44;;;;;;;;;;;;;;;0.53;100.00;93352.72;10381379;28;20292;-78
2021/12/07 11:10:47;;;;;;;;;;;;;;;0.96;100.00;93352.94;10381261;28;19960;-75
2021/12/07 11:15:56;;;;;;;;;;;;;;;1.22;100.00;93350.59;10381286;28;19913;-81
2021/12/07 11:21:16;;;;;;;;;;;;;;;1.35;100.00;93358.94;10365868;28;19921;-74
2021/12/07 11:31:18;;;;;;;;;;;;;;;1.45;100.00;93347.66;10370911;28;20364;-74
2021/12/07 11:36:20;;;;;;;;;;;;;;;1.49;100.00;93337.34;10365510;28;19917;-79
2021/12/07 11:41:32;;;;;;;;;;;;;;;1.61;100.00;93347.78;10380332;28;20287;-77
2021/12/07 11:46:34;;;;;;;;;;;;;;;1.59;100.00;93348.03;10371606;28;20342;-75
2021/12/07 11:51:34;;;;;;;;;;;;;;;1.55;100.00;93354.88;10383183;28;19964;-75
2021/12/07 11:56:35;;;;;;;;;;;;;;;1.54;100.00;93345.34;10380029;28;20003;-82
2021/12/07 12:01:36;;;;;;;;;;;;;;;1.23;100.00;93341.59;10378820;28;19917;-74
2021/12/07 12:06:36;;;;;;;;;;;;;;;0.88;100.00;93338.31;10363125;28;19914;-81
2021/12/07 12:11:44;;;;;;;;;;;;;;;0.84;100.00;93345.94;10379817;28;19980;-76
2021/12/07 12:16:45;;;;;;;;;;;;;;;0.98;100.00;93338.44;10379542;28;19913;-76
2021/12/07 12:22:04;;;;;;;;;;;;;;;0.95;100.00;93338.13;10378980;28;20362;-75
2021/12/07 12:27:27;;;;;;;;;;;;;;;1.10;100.00;93335.63;10363445;28;19963;-80
2021/12/07 12:32:36;;;;;;;;;;;;;;;1.05;100.00;93322.38;10362042;28;19945;-81
2021/12/07 12:37:38;;;;;;;;;;;;;;;1.00;100.00;93330.25;10377291;28;19995;-75
2021/12/07 12:42:46;;;;;;;;;;;;;;;0.90;100.00;93330.94;10363377;28;19926;-79
2021/12/07 12:47:54;;;;;;;;;;;;;;;0.54;100.00;93337.66;10378051;28;20354;-75
2021/12/07 12:52:57;;;;;;;;;;;;;;;0.46;100.00;93352.06;10377519;28;19956;-79
2021/12/07 12:57:58;;;;;;;;;;;;;;;0.28;100.00;93350.50;10361318;28;19917;-75
2021/12/07 13:03:08;;;;;;;;;;;;;;;0.31;100.00;93357.97;10377263;28;19917;-77
2021/12/07 13:08:15;;;;;;;;;;;;;;;0.31;100.00;93371.19;10398615;28;19916;-81
2021/12/07 13:13:26;;;;;;;;;;;;;;;0.59;100.00;93361.50;10385468;28;20422;-75
2021/12/07 13:18:31;;;;;;;;;;;;;;;0.51;100.00;93355.56;10399728;28;20334;-75
2021/12/07 13:23:32;;;;;;;;;;;;;;;0.72;100.00;93366.41;10400433;28;19921;-76
2021/12/07 13:28:33;;;;;;;;;;;;;;;0.67;100.00;93367.16;10400534;28;19913;-77
2021/12/07 13:33:37;;;;;;;;;;;;;;;0.37;100.00;93364.91;10400463;28;19913;-75
2021/12/07 13:38:38;;;;;;;;;;;;;;;0.53;100.00;93362.47;10400941;28;19937;-78
2021/12/07 13:43:39;;;;;;;;;;;;;;;0.58;100.00;93378.41;10400566;28;20386;-81
2021/12/07 13:48:40;;;;;;;;;;;;;;;0.59;100.00;93378.16;10400392;28;20303;-75
2021/12/07 13:53:42;;;;;;;;;;;;;;;0.60;100.00;93376.31;10400552;28;19920;-79
2021/12/07 13:58:59;;;;;;;;;;;;;;;0.31;100.00;93387.81;10399848;28;20264;-77
2021/12/07 14:04:00;;;;;;;;;;;;;;;0.07;100.00;93384.56;10399166;28;19939;-78
2021/12/07 14:09:09;;;;;;;;;;;;;;;-0.11;100.00;93392.72;10399894;28;19920;-78
2021/12/07 14:14:14;;;;;;;;;;;;;;;-0.42;100.00;93402.78;10399157;28;19913;-77
2021/12/07 14:19:14;;;;;;;;;;;;;;;-0.43;100.00;93409.09;10399228;28;19913;-76
2021/12/07 14:24:19;;;;;;;;;;;;;;;-0.20;100.00;93408.16;10400440;28;19925;-74
2021/12/07 14:29:21;;;;;;;;;;;;;;;-0.35;100.00;93411.34;10399789;28;20363;-80
2021/12/07 14:34:23;;;;;;;;;;;;;;;-0.29;100.00;93413.06;10399588;28;19917;-74
2021/12/07 14:39:25;;;;;;;;;;;;;;;-0.42;100.00;93415.97;10399172;28;19921;-77
2021/12/07 14:44:27;;;;;;;;;;;;;;;-0.53;100.00;93420.28;10374659;28;20017;-77
2021/12/07 14:49:28;;;;;;;;;;;;;;;-0.72;100.00;93422.31;10358400;28;20376;-77
2021/12/07 14:54:28;;;;;;;;;;;;;;;-0.67;100.00;93425.06;10359498;28;20016;-81
2021/12/07 14:59:28;;;;;;;;;;;;;;;-0.70;100.00;93426.31;10362842;28;19920;-77
2021/12/07 15:04:29;;;;;;;;;;;;;;;-0.68;100.00;93423.44;10364613;28;19932;-74
2021/12/07 15:09:34;;;;;;;;;;;;;;;-0.97;100.00;93420.78;10366821;28;19913;-74
2021/12/07 15:14:35;;;;;;;;;;;;;;;-0.82;100.00;93432.66;10367096;28;20438;-77
2021/12/07 15:19:36;;;;;;;;;;;;;;;-1.29;100.00;93430.94;10364867;28;20024;-73
2021/12/07 15:24:38;;;;;;;;;;;;;;;-1.24;100.00;93433.69;10364434;28;20421;-75
2021/12/07 15:29:38;;;;;;;;;;;;;;;-1.06;100.00;93448.53;10367468;28;19921;-74
2021/12/07 15:34:41;;;;;;;;;;;;;;;-1.13;100.00;93458.41;10364281;28;19920;-75
2021/12/07 15:40:01;;;;;;;;;;;;;;;-1.07;100.00;93449.59;10365987;28;20514;-74
2021/12/07 15:45:07;;;;;;;;;;;;;;;-0.99;100.00;93464.25;10380960;28;19929;-76
2021/12/07 15:50:11;;;;;;;;;;;;;;;-1.02;100.00;93464.72;10367570;28;20230;-78
2021/12/07 15:55:13;;;;;;;;;;;;;;;-1.15;100.00;93471.84;10411594;28;19913;-77
2021/12/07 16:00:15;;;;;;;;;;;;;;;-1.53;100.00;93462.59;10404582;28;20425;-76
2021/12/07 16:05:15;;;;;;;;;;;;;;;-1.26;100.00;93475.28;10402435;28;19971;-79
2021/12/07 16:10:25;;;;;;;;;;;;;;;-1.22;100.00;93477.22;10403746;28;20019;-79
2021/12/07 16:15:25;;;;;;;;;;;;;;;-1.01;100.00;93472.38;10403639;28;20000;-82
2021/12/07 16:20:26;;;;;;;;;;;;;;;-1.18;100.00;93463.59;10403889;28;20261;-80
2021/12/07 16:25:26;;;;;;;;;;;;;;;-1.29;100.00;93475.75;10402831;28;20413;-77
2021/12/07 16:30:28;;;;;;;;;;;;;;;-1.45;100.00;93477.25;10403103;28;19913;-81
2021/12/07 16:35:29;;;;;;;;;;;;;;;-1.35;100.00;93474.84;10403906;28;19932;-83
2021/12/07 16:40:29;;;;;;;;;;;;;;;-1.39;100.00;93477.13;10401700;28;19983;-78
2021/12/07 16:45:37;;;;;;;;;;;;;;;-1.38;100.00;93485.84;10404060;28;20355;-75
2021/12/07 16:50:39;;;;;;;;;;;;;;;-1.53;100.00;93493.38;10385368;28;19923;-75
2021/12/07 16:55:40;;;;;;;;;;;;;;;-1.45;100.00;93495.69;10381885;28;20442;-80
2021/12/07 17:00:42;;;;;;;;;;;;;;;-1.39;100.00;93492.16;10363104;28;19923;-75
2021/12/07 17:05:43;;;;;;;;;;;;;;;-1.42;100.00;93482.88;10368939;28;19933;-77
2021/12/07 17:10:44;;;;;;;;;;;;;;;-1.36;100.00;93490.91;10360797;28;19913;-76
2021/12/07 17:15:47;;;;;;;;;;;;;;;-1.44;100.00;93494.66;10391885;28;19917;-79
2021/12/07 17:20:48;;;;;;;;;;;;;;;-1.51;100.00;93491.34;10428160;28;19917;-78
2021/12/07 17:25:48;;;;;;;;;;;;;;;-1.57;100.00;93504.38;10439881;28;19924;-79
2021/12/07 17:30:49;;;;;;;;;;;;;;;-1.63;100.00;93501.84;10427993;28;19921;-77
2021/12/07 17:35:49;;;;;;;;;;;;;;;-1.61;100.00;93516.41;10399199;28;19928;-76
2021/12/07 17:40:52;;;;;;;;;;;;;;;-1.68;100.00;93505.19;10365170;28;19976;-76
2021/12/07 17:45:53;;;;;;;;;;;;;;;-1.63;100.00;93513.22;10359469;28;19917;-78
2021/12/07 17:50:53;;;;;;;;;;;;;;;-1.51;100.00;93523.75;10358198;28;20488;-78
2021/12/07 17:55:54;;;;;;;;;;;;;;;-1.54;100.00;93529.47;10374581;28;19918;-79
2021/12/07 18:00:54;;;;;;;;;;;;;;;-1.67;100.00;93532.34;10375060;28;20319;-75
2021/12/07 18:05:57;;;;;;;;;;;;;;;-1.39;100.00;93529.03;10374295;28;19917;-77
2021/12/07 18:10:57;;;;;;;;;;;;;;;-1.40;100.00;93533.50;10440187;28;19913;-77
2021/12/07 18:15:58;;;;;;;;;;;;;;;-1.50;100.00;93541.16;10388245;28;19920;-77
2021/12/07 18:20:58;;;;;;;;;;;;;;;-1.49;100.00;93544.59;10358384;28;19917;-79
2021/12/07 18:25:59;;;;;;;;;;;;;;;-1.56;100.00;93566.59;10356895;28;20396;-78
2021/12/07 18:30:59;;;;;;;;;;;;;;;-1.65;100.00;93567.94;10373893;28;20012;-76
2021/12/07 18:36:00;;;;;;;;;;;;;;;-1.74;100.00;93574.59;10360625;28;19921;-78
2021/12/07 18:41:03;;;;;;;;;;;;;;;-1.65;100.00;93578.47;10364743;28;19926;-78
2021/12/07 18:46:03;;;;;;;;;;;;;;;-1.70;100.00;93578.38;10367055;28;19922;-76
2021/12/07 18:51:05;;;;;;;;;;;;;;;-1.80;100.00;93578.09;10380943;28;20378;-76
2021/12/07 18:56:07;;;;;;;;;;;;;;;-1.85;100.00;93584.06;10381597;28;19920;-74
2021/12/07 19:01:18;;;;;;;;;;;;;;;-1.84;100.00;93585.66;10381219;28;19914;-74
2021/12/07 19:06:18;;;;;;;;;;;;;;;-1.76;100.00;93592.44;10387858;28;19959;-77
2021/12/07 19:11:19;;;;;;;;;;;;;;;-1.74;100.00;93593.81;10447543;28;20003;-77
2021/12/07 19:16:19;;;;;;;;;;;;;;;-1.81;100.00;93602.84;10448385;28;19912;-73
2021/12/07 19:21:20;;;;;;;;;;;;;;;-1.81;100.00;93611.56;10446683;28;20007;-74
2021/12/07 19:26:21;;;;;;;;;;;;;;;-1.80;100.00;93602.63;10448802;28;19967;-78
2021/12/07 19:31:22;;;;;;;;;;;;;;;-1.85;100.00;93623.56;10447256;28;19917;-73
2021/12/07 19:36:24;;;;;;;;;;;;;;;-1.81;100.00;93614.19;10444979;28;19916;-73
2021/12/07 19:41:55;;;;;;;;;;;;;;;-1.82;100.00;93617.84;10447222;28;19925;-78
2021/12/07 19:46:56;;;;;;;;;;;;;;;-1.92;100.00;93621.00;10445749;28;20439;-77
2021/12/07 19:51:59;;;;;;;;;;;;;;;-1.91;100.00;93621.81;10444852;28;19920;-75
2021/12/07 19:57:00;;;;;;;;;;;;;;;-1.85;100.00;93620.91;10387730;28;19913;-73
2021/12/07 20:02:03;;;;;;;;;;;;;;;-1.83;100.00;93629.38;10355018;28;19917;-74
2021/12/07 20:07:05;;;;;;;;;;;;;;;-1.86;100.00;93632.47;10382054;28;19913;-75
2021/12/07 20:12:07;;;;;;;;;;;;;;;-1.86;100.00;93632.47;10444097;28;19913;-72
2021/12/07 20:17:08;;;;;;;;;;;;;;;-1.83;100.00;93645.19;10443316;28;20441;-74
2021/12/07 20:22:10;;;;;;;;;;;;;;;-1.78;100.00;93641.91;10427794;28;19916;-74
2021/12/07 20:27:10;;;;;;;;;;;;;;;-1.95;100.00;93641.72;10443228;28;19913;-72
2021/12/07 20:32:10;;;;;;;;;;;;;;;-1.91;100.00;93650.78;10443157;28;19913;-74
2021/12/07 20:37:11;;;;;;;;;;;;;;;-1.98;100.00;93652.69;10430374;28;19926;-73
2021/12/07 20:42:11;;;;;;;;;;;;;;;-1.80;100.00;93655.31;10376762;28;19929;-77
2021/12/07 20:47:11;;;;;;;;;;;;;;;-1.98;100.00;93664.03;10377631;28;20384;-77
2021/12/07 20:52:12;;;;;;;;;;;;;;;-2.06;100.00;93664.34;10377998;28;19964;-78
2021/12/07 20:57:12;;;;;;;;;;;;;;;-1.90;100.00;93676.06;10377106;28;20391;-73
2021/12/07 21:02:12;;;;;;;;;;;;;;;-1.92;100.00;93681.56;10361117;28;19976;-73
2021/12/07 21:07:13;;;;;;;;;;;;;;;-1.93;100.00;93674.69;10388956;28;20438;-73
2021/12/07 21:12:14;;;;;;;;;;;;;;;-1.83;100.00;93683.91;10400710;28;20013;-75
2021/12/07 21:17:16;;;;;;;;;;;;;;;-1.85;100.00;93688.59;10401240;28;20316;-73
2021/12/07 21:22:17;;;;;;;;;;;;;;;-1.88;100.00;93687.22;10400475;28;20365;-76
2021/12/07 21:27:18;;;;;;;;;;;;;;;-1.81;100.00;93690.56;10400917;28;19963;-74
2021/12/07 21:32:18;;;;;;;;;;;;;;;-2.01;100.00;93697.88;10399309;28;19975;-78
2021/12/07 21:37:19;;;;;;;;;;;;;;;-1.92;100.00;93694.72;10384530;28;20370;-74
2021/12/07 21:42:20;;;;;;;;;;;;;;;-1.97;100.00;93702.47;10399930;28;19951;-78
2021/12/07 21:47:20;;;;;;;;;;;;;;;-2.03;100.00;93700.75;10399923;28;20026;-77
2021/12/07 21:52:21;;;;;;;;;;;;;;;-2.03;100.00;93703.38;10400361;28;20007;-73
2021/12/07 21:57:21;;;;;;;;;;;;;;;-2.01;100.00;93709.25;10400504;28;19913;-75
2021/12/07 22:02:22;;;;;;;;;;;;;;;-1.99;100.00;93714.28;10400992;28;19929;-74
2021/12/07 22:07:22;;;;;;;;;;;;;;;-2.06;100.00;93717.00;10398787;28;19921;-75
2021/12/07 22:12:22;;;;;;;;;;;;;;;-2.06;100.00;93719.63;10405748;28;20286;-74
2021/12/07 22:17:23;;;;;;;;;;;;;;;-2.00;100.00;93721.34;10408414;28;19913;-75
2021/12/07 22:22:23;;;;;;;;;;;;;;;-2.02;100.00;93712.06;10408012;28;20322;-75
2021/12/07 22:27:29;;;;;;;;;;;;;;;-2.01;100.00;93717.16;10408283;28;19913;-76
2021/12/07 22:32:29;;;;;;;;;;;;;;;-2.02;100.00;93720.78;10408406;28;20413;-75
2021/12/07 22:37:31;;;;;;;;;;;;;;;-1.95;100.00;93720.72;10407371;28;19921;-75
2021/12/07 22:42:32;;;;;;;;;;;;;;;-2.02;100.00;93712.06;10407222;28;19995;-75
2021/12/07 22:47:32;;;;;;;;;;;;;;;-1.89;100.00;93714.56;10409063;28;19995;-75
2021/12/07 22:52:33;;;;;;;;;;;;;;;-1.82;100.00;93722.38;10406980;28;19920;-75
2021/12/07 22:57:33;;;;;;;;;;;;;;;-2.02;100.00;93730.50;10382559;28;19933;-75
2021/12/07 23:02:34;;;;;;;;;;;;;;;-1.98;100.00;93723.78;10366260;28;20024;-74
2021/12/07 23:07:34;;;;;;;;;;;;;;;-1.97;100.00;93728.03;10382814;28;20418;-75
2021/12/07 23:12:34;;;;;;;;;;;;;;;-1.92;100.00;93721.06;10383554;28;19914;-75
2021/12/07 23:17:41;;;;;;;;;;;;;;;-1.86;100.00;93729.13;10406099;28;19917;-75
2021/12/07 23:22:42;;;;;;;;;;;;;;;-1.59;100.00;93722.50;10405067;28;19924;-74
2021/12/07 23:27:46;;;;;;;;;;;;;;;-1.35;100.00;93727.84;10407189;28;19917;-74
2021/12/07 23:32:46;;;;;;;;;;;;;;;-1.14;100.00;93729.19;10405348;28;19913;-73
2021/12/07 23:37:47;;;;;;;;;;;;;;;-1.22;100.00;93719.75;10405387;28;19921;-75
2021/12/07 23:42:47;;;;;;;;;;;;;;;-1.40;100.00;93720.59;10405514;28;19925;-77
2021/12/07 23:47:48;;;;;;;;;;;;;;;-1.19;100.00;93725.63;10405898;28;20004;-79
2021/12/07 23:52:48;;;;;;;;;;;;;;;-1.20;100.00;93732.69;10405480;28;20363;-76
2021/12/07 23:57:49;;;;;;;;;;;;;;;-1.07;100.00;93729.09;10404805;28;20007;-73
